Necedah, Wisconsin
Current Conditions -  °F | °C
As of 2:58 AM on Sunday 23 Nov 2014 (Local Time) from KVOK Reporting Station
Overcast Overcast  
Wind Chill: 11°   Ceiling: 1000
Heat Index: 11°   Visibility: 10mi
Dew Point: 11°   Wind: 9mph
Humidity: 100%   Direction: 200°SSW
Pressure: 29.61"   Gusts: 23mph
Location:  44.03°N, 90.07°W
Report Text: KVOK 230858Z AUTO 20008G20KT 10SM OVC010 11/11 A2961 RMK AO2 SLP034 T01110111 56016
Loading
Personal Weather Stations






























Interactive Weather Map New forecast layout! Learn more

10-Day Weather Forecast

Advertisements
Track Severe Weather on mobile